Time;durP1;ratioP1;P1;durP2;ratioP2;P2;SDS_P1;SDS_P2;PMS_P1;PMS_P2;Temp;Humidity;BMP_temperature;BMP_pressure;BME280_temperature;BME280_humidity;BME280_pressure;Samples;Min_cycle;Max_cycle;Signal;HPM_P1;HPM_P2
2021/03/08 00:00:16;;;;;;;23.83;14.05;;;;;;;15.53;43.13;102412.56;5075625;28;20511;-75
2021/03/08 00:02:42;;;;;;;26.45;15.95;;;;;;;15.61;43.07;102422.06;5075901;28;20025;-75
2021/03/08 00:05:10;;;;;;;21.73;14.55;;;;;;;15.50;43.40;102421.47;5074427;28;20044;-76
2021/03/08 00:07:36;;;;;;;22.80;14.65;;;;;;;15.47;43.74;102425.63;5075514;28;20029;-75
2021/03/08 00:10:04;;;;;;;21.05;15.38;;;;;;;15.53;43.63;102421.66;5075475;28;20032;-76
2021/03/08 00:12:30;;;;;;;29.80;15.80;;;;;;;15.74;43.01;102422.09;5075511;28;20035;-75
2021/03/08 00:14:55;;;;;;;21.65;15.65;;;;;;;15.86;42.78;102418.81;5075626;28;20028;-75
2021/03/08 00:17:21;;;;;;;21.90;16.20;;;;;;;15.87;42.72;102412.19;5075629;28;20029;-75
2021/03/08 00:19:46;;;;;;;21.45;14.98;;;;;;;15.97;42.52;102409.22;5075278;28;20496;-75
2021/03/08 00:22:12;;;;;;;29.73;16.30;;;;;;;16.07;42.10;102402.66;5075231;28;20116;-76
2021/03/08 00:24:37;;;;;;;19.67;15.30;;;;;;;16.09;42.35;102406.72;5075297;28;20052;-75
2021/03/08 00:27:03;;;;;;;24.55;15.45;;;;;;;16.12;42.26;102404.50;5075464;28;20032;-75
2021/03/08 00:29:29;;;;;;;20.38;14.63;;;;;;;16.11;42.43;102405.63;5075125;28;20028;-75
2021/03/08 00:31:55;;;;;;;18.20;14.55;;;;;;;16.15;42.26;102403.84;5075103;28;20028;-75
2021/03/08 00:34:20;;;;;;;18.52;14.88;;;;;;;16.04;42.61;102390.31;5075322;28;20116;-75
2021/03/08 00:36:46;;;;;;;18.67;14.35;;;;;;;16.06;42.86;102396.31;5075304;28;20536;-75
2021/03/08 00:39:11;;;;;;;22.05;14.13;;;;;;;16.07;42.51;102397.13;5074955;28;20092;-75
2021/03/08 00:41:37;;;;;;;23.33;14.25;;;;;;;15.95;43.13;102388.59;5075176;28;20497;-75
2021/03/08 00:44:04;;;;;;;21.23;14.93;;;;;;;16.01;42.97;102396.41;5073584;28;20108;-75
2021/03/08 00:46:29;;;;;;;20.02;13.80;;;;;;;15.98;43.13;102386.03;5074738;28;20024;-75
2021/03/08 00:48:55;;;;;;;17.20;13.57;;;;;;;15.98;43.19;102377.75;5074807;28;20031;-75
2021/03/08 00:51:21;;;;;;;15.88;13.27;;;;;;;16.02;43.11;102389.81;5074421;28;20054;-75
2021/03/08 00:53:46;;;;;;;17.75;13.82;;;;;;;16.15;42.90;102388.13;5072876;28;20028;-75
2021/03/08 00:56:12;;;;;;;18.15;13.07;;;;;;;16.16;42.90;102389.75;5074324;28;20028;-75
2021/03/08 00:58:38;;;;;;;17.75;12.50;;;;;;;16.18;42.76;102386.69;5073997;28;20457;-75
2021/03/08 01:01:03;;;;;;;17.42;13.10;;;;;;;16.12;42.92;102388.75;5073960;28;20433;-75
2021/03/08 01:03:29;;;;;;;19.75;13.13;;;;;;;16.13;43.08;102390.38;5074065;28;20048;-75
2021/03/08 01:05:55;;;;;;;22.48;13.75;;;;;;;16.15;42.97;102379.84;5073870;28;20025;-75
2021/03/08 01:08:20;;;;;;;22.85;13.63;;;;;;;16.15;42.90;102382.59;5073666;28;20031;-76
2021/03/08 01:10:46;;;;;;;21.00;12.85;;;;;;;16.11;43.00;102384.38;5073805;28;20037;-75
2021/03/08 01:13:12;;;;;;;17.15;13.52;;;;;;;16.08;43.22;102384.97;5073759;28;20025;-75
2021/03/08 01:15:38;;;;;;;14.80;12.55;;;;;;;16.05;43.39;102389.19;5073664;28;20024;-76
2021/03/08 01:18:04;;;;;;;14.82;11.98;;;;;;;16.09;43.33;102379.13;5073597;28;20028;-75
2021/03/08 01:20:29;;;;;;;20.25;13.35;;;;;;;16.19;42.78;102377.31;5073512;28;20078;-75
2021/03/08 01:22:55;;;;;;;20.05;12.15;;;;;;;16.13;43.21;102378.53;5073654;28;20578;-75
2021/03/08 01:25:25;;;;;;;21.42;13.15;;;;;;;16.22;42.88;102371.16;5073645;28;20449;-75
2021/03/08 01:27:50;;;;;;;18.02;12.88;;;;;;;16.31;42.77;102372.84;5073476;28;20025;-75
2021/03/08 01:30:19;;;;;;;20.38;12.25;;;;;;;16.39;42.49;102371.28;5073386;28;20032;-76
2021/03/08 01:32:45;;;;;;;17.20;12.98;;;;;;;16.41;42.49;102362.72;5073344;28;20025;-75
2021/03/08 01:35:11;;;;;;;16.02;12.60;;;;;;;16.39;42.64;102363.00;5073305;28;20016;-76
2021/03/08 01:37:38;;;;;;;17.50;13.38;;;;;;;16.42;42.46;102359.63;5073320;28;20103;-76
2021/03/08 01:40:12;;;;;;;19.35;13.70;;;;;;;16.46;42.45;102359.81;5073064;28;20032;-75
2021/03/08 01:42:39;;;;;;;19.13;13.77;;;;;;;16.51;42.35;102352.22;5073294;28;20031;-75
2021/03/08 01:45:07;;;;;;;20.15;15.23;;;;;;;16.53;42.27;102352.72;5072932;28;20082;-76
2021/03/08 01:47:32;;;;;;;23.75;14.48;;;;;;;16.59;42.04;102350.66;5073328;28;20055;-75
2021/03/08 01:49:58;;;;;;;20.90;14.68;;;;;;;16.52;42.47;102361.31;5071677;28;20486;-75
2021/03/08 01:52:24;;;;;;;23.08;14.82;;;;;;;16.43;42.59;102350.22;5073042;28;20177;-75
2021/03/08 01:54:50;;;;;;;22.23;14.57;;;;;;;16.58;42.29;102357.31;5073166;28;20027;-76
2021/03/08 01:57:15;;;;;;;17.75;13.93;;;;;;;16.58;42.00;102349.84;5072688;28;20068;-75
2021/03/08 01:59:41;;;;;;;21.20;14.82;;;;;;;16.60;42.12;102344.81;5072753;28;20060;-75
2021/03/08 02:02:08;;;;;;;19.58;14.23;;;;;;;16.57;41.97;102353.75;5073003;28;20031;-75
2021/03/08 02:04:34;;;;;;;23.52;17.00;;;;;;;16.60;42.13;102350.34;5072473;28;20028;-75
2021/03/08 02:06:59;;;;;;;20.40;15.05;;;;;;;16.54;42.18;102348.84;5071438;28;20029;-75
2021/03/08 02:09:25;;;;;;;20.17;16.95;;;;;;;16.54;42.04;102348.84;5072438;28;20035;-75
2021/03/08 02:12:01;;;;;;;19.95;16.27;;;;;;;16.55;41.88;102350.50;5072440;28;20029;-75
2021/03/08 02:15:04;;;;;;;23.73;15.45;;;;;;;16.48;41.98;102350.13;5072328;28;20029;-75
2021/03/08 02:17:38;;;;;;;20.73;16.23;;;;;;;16.50;41.90;102344.28;5071754;28;20111;-75
2021/03/08 02:20:32;;;;;;;20.33;15.43;;;;;;;16.38;42.08;102337.38;5072161;28;20039;-75
2021/03/08 02:23:28;;;;;;;22.27;15.05;;;;;;;16.33;42.18;102336.69;5072118;28;20040;-75
2021/03/08 02:26:24;;;;;;;24.90;17.75;;;;;;;16.35;42.16;102342.72;5072358;28;20111;-75
2021/03/08 02:29:20;;;;;;;20.65;16.05;;;;;;;16.29;42.14;102327.41;5072667;28;20040;-75
2021/03/08 02:31:49;;;;;;;25.15;16.83;;;;;;;16.16;42.34;102329.09;5072903;28;20040;-75
2021/03/08 02:34:21;;;;;;;22.20;17.90;;;;;;;16.22;42.38;102329.78;5073101;28;20033;-75
2021/03/08 02:36:52;;;;;;;22.65;17.10;;;;;;;16.22;42.18;102324.25;5072727;28;20086;-76
2021/03/08 02:39:26;;;;;;;22.60;16.25;;;;;;;16.17;42.18;102327.97;5072704;28;20021;-75
2021/03/08 02:41:55;;;;;;;23.55;17.73;;;;;;;16.24;41.86;102327.53;5072758;28;20037;-75
2021/03/08 02:44:27;;;;;;;21.20;17.55;;;;;;;16.21;42.07;102325.41;5072680;28;20120;-75
2021/03/08 02:46:56;;;;;;;21.38;17.08;;;;;;;16.24;41.80;102317.28;5072689;28;20032;-75
2021/03/08 02:49:24;;;;;;;23.65;17.27;;;;;;;16.23;41.82;102320.38;5072598;28;20085;-75
2021/03/08 02:52:02;;;;;;;22.90;16.98;;;;;;;16.14;42.02;102311.22;5072695;28;20142;-75
2021/03/08 02:54:32;;;;;;;21.67;17.23;;;;;;;16.21;41.79;102303.34;5072661;28;20025;-76
2021/03/08 02:57:04;;;;;;;23.00;16.92;;;;;;;16.11;41.72;102306.34;5072575;28;20051;-76
2021/03/08 02:59:39;;;;;;;21.73;16.92;;;;;;;16.07;41.80;102312.47;5072252;28;20398;-75
2021/03/08 03:02:06;;;;;;;22.45;17.27;;;;;;;16.11;41.66;102303.59;5072472;28;20028;-75
2021/03/08 03:04:36;;;;;;;22.77;16.60;;;;;;;16.17;41.92;102305.91;5072432;28;20475;-76
2021/03/08 03:07:03;;;;;;;23.50;17.75;;;;;;;16.18;41.48;102299.28;5072446;28;20050;-76
2021/03/08 03:09:30;;;;;;;21.38;17.05;;;;;;;15.99;41.79;102299.44;5072698;28;20029;-75
2021/03/08 03:11:57;;;;;;;23.88;16.77;;;;;;;16.09;41.68;102296.41;5072463;28;20025;-75
2021/03/08 03:14:23;;;;;;;19.85;17.30;;;;;;;16.18;41.52;102292.94;5072699;28;20032;-75
2021/03/08 03:16:56;;;;;;;18.83;16.20;;;;;;;16.30;40.91;102287.66;5072349;28;20070;-76
2021/03/08 03:19:23;;;;;;;20.90;16.75;;;;;;;16.15;41.44;102285.28;5072560;28;20024;-75
2021/03/08 03:21:50;;;;;;;22.08;16.98;;;;;;;16.09;41.38;102279.06;5072587;28;20024;-75
2021/03/08 03:24:16;;;;;;;25.63;16.75;;;;;;;16.07;41.66;102276.63;5072306;28;20040;-76
2021/03/08 03:26:43;;;;;;;23.58;16.27;;;;;;;16.08;41.72;102272.75;5072325;28;20028;-75
2021/03/08 03:29:12;;;;;;;22.23;16.77;;;;;;;16.04;41.67;102277.25;5072772;28;20115;-75
2021/03/08 03:31:41;;;;;;;24.50;16.65;;;;;;;16.10;41.26;102272.44;5076359;28;20056;-75
2021/03/08 03:34:07;;;;;;;21.40;15.73;;;;;;;16.08;41.58;102277.44;5076187;28;20037;-76
2021/03/08 03:36:35;;;;;;;22.77;15.57;;;;;;;16.01;41.56;102266.84;5076154;28;20103;-75
2021/03/08 03:39:05;;;;;;;18.80;15.50;;;;;;;16.01;41.45;102263.28;5076078;28;20108;-75
2021/03/08 03:41:32;;;;;;;20.33;16.25;;;;;;;16.00;41.56;102267.97;5076073;28;20047;-75
2021/03/08 03:43:58;;;;;;;21.00;15.60;;;;;;;16.00;41.71;102270.72;5076057;28;20450;-75
2021/03/08 03:46:24;;;;;;;22.33;16.05;;;;;;;16.17;41.32;102270.06;5076066;28;20060;-75
2021/03/08 03:48:50;;;;;;;19.90;15.63;;;;;;;16.15;41.20;102269.53;5076107;28;20344;-75
2021/03/08 03:51:16;;;;;;;21.95;14.60;;;;;;;16.19;41.07;102270.56;5076201;28;20039;-75
2021/03/08 03:53:41;;;;;;;23.17;14.35;;;;;;;16.20;41.11;102274.94;5076132;28;20386;-75
2021/03/08 03:56:10;;;;;;;19.27;14.85;;;;;;;16.16;40.99;102273.13;5091493;28;20563;-75
2021/03/08 03:58:53;;;;;;;19.00;13.13;;;;;;;16.30;40.85;102258.13;5075574;28;20083;-76
2021/03/08 04:01:23;;;;;;;18.85;13.65;;;;;;;16.44;40.45;102260.00;5075626;28;20070;-75
2021/03/08 04:04:04;;;;;;;18.27;13.80;;;;;;;16.47;40.45;102262.94;5075579;28;20107;-75
2021/03/08 04:06:37;;;;;;;19.92;13.95;;;;;;;16.44;40.35;102269.09;5075935;28;20039;-75
2021/03/08 04:09:04;;;;;;;17.70;12.85;;;;;;;16.31;40.96;102279.06;5075871;28;20061;-75
2021/03/08 04:11:37;;;;;;;16.50;13.02;;;;;;;16.42;40.73;102267.78;5075585;28;20033;-75
2021/03/08 04:14:04;;;;;;;18.15;13.35;;;;;;;16.45;40.83;102273.47;5075705;28;20028;-75
2021/03/08 04:16:32;;;;;;;17.00;13.10;;;;;;;16.46;40.60;102269.59;5075399;28;20120;-75
2021/03/08 04:18:59;;;;;;;17.92;12.65;;;;;;;16.46;40.65;102269.59;5075361;28;20056;-75
2021/03/08 04:21:26;;;;;;;17.48;12.40;;;;;;;16.51;40.51;102265.88;5075380;28;20082;-76
2021/03/08 04:23:54;;;;;;;16.67;13.57;;;;;;;16.47;40.39;102262.13;5075285;28;20470;-76
2021/03/08 04:26:22;;;;;;;21.48;14.02;;;;;;;16.45;40.88;102259.69;5072693;28;20056;-75
2021/03/08 04:28:48;;;;;;;17.30;14.27;;;;;;;16.50;40.60;102261.50;5075166;28;20025;-75
2021/03/08 04:31:16;;;;;;;19.08;13.40;;;;;;;16.55;40.65;102250.31;5075069;28;20032;-75
2021/03/08 04:33:44;;;;;;;20.40;14.55;;;;;;;16.53;40.30;102250.63;5075374;28;20075;-76
2021/03/08 04:36:12;;;;;;;19.20;13.45;;;;;;;16.44;40.75;102255.28;5075308;28;20112;-76
2021/03/08 04:38:41;;;;;;;16.67;13.77;;;;;;;16.39;40.79;102249.91;5073783;28;20029;-76
2021/03/08 04:41:07;;;;;;;19.77;14.70;;;;;;;16.32;40.92;102260.56;5074383;28;20028;-76
2021/03/08 04:43:33;;;;;;;17.42;12.40;;;;;;;16.16;41.70;102267.59;5074850;28;20025;-76
2021/03/08 04:45:59;;;;;;;19.50;14.55;;;;;;;16.17;41.36;102269.22;5074924;28;20045;-75
2021/03/08 04:48:27;;;;;;;15.20;12.85;;;;;;;16.00;41.91;102267.97;5074875;28;20104;-75
2021/03/08 04:50:54;;;;;;;18.48;12.88;;;;;;;16.06;41.90;102268.69;5074784;28;20055;-75
2021/03/08 04:53:20;;;;;;;19.45;12.88;;;;;;;15.94;42.18;102263.69;5074557;28;20151;-75
2021/03/08 04:55:48;;;;;;;18.80;12.07;;;;;;;15.66;43.12;102268.50;5072850;28;20027;-75
2021/03/08 04:58:14;;;;;;;16.13;13.02;;;;;;;15.72;42.75;102264.53;5073817;28;20076;-76
2021/03/08 05:00:40;;;;;;;17.58;13.30;;;;;;;15.67;42.89;102264.63;5073976;28;20064;-75
2021/03/08 05:03:05;;;;;;;14.80;11.52;;;;;;;15.32;44.10;102255.16;5074236;28;20024;-75
2021/03/08 05:05:33;;;;;;;17.23;13.82;;;;;;;15.52;43.48;102259.44;5073829;28;20054;-76
2021/03/08 05:08:10;;;;;;;16.20;12.77;;;;;;;15.51;43.77;102264.13;5073783;28;20055;-76
2021/03/08 05:10:39;;;;;;;17.35;13.07;;;;;;;15.53;43.60;102261.88;5074128;28;20097;-75
2021/03/08 05:13:10;;;;;;;16.98;12.85;;;;;;;15.70;42.95;102255.72;5074009;28;20028;-75
2021/03/08 05:15:37;;;;;;;16.83;13.57;;;;;;;15.62;43.51;102261.97;5073811;28;20028;-75
2021/03/08 05:18:04;;;;;;;16.70;13.07;;;;;;;15.70;43.13;102254.91;5073601;28;20039;-75
2021/03/08 05:20:31;;;;;;;18.35;13.15;;;;;;;15.71;43.14;102265.63;5073929;28;20033;-75
2021/03/08 05:23:00;;;;;;;20.50;13.15;;;;;;;15.70;43.22;102266.75;5073825;28;20099;-76
2021/03/08 05:25:26;;;;;;;18.30;13.70;;;;;;;15.71;43.07;102267.56;5073832;28;20024;-75
2021/03/08 05:27:53;;;;;;;17.63;13.60;;;;;;;15.96;42.54;102263.41;5073324;28;20506;-75
2021/03/08 05:30:20;;;;;;;18.83;13.13;;;;;;;15.76;42.98;102265.50;5073686;28;20374;-75
2021/03/08 05:32:51;;;;;;;14.50;12.45;;;;;;;16.10;42.17;102261.41;5073790;28;20509;-75
2021/03/08 05:35:17;;;;;;;19.45;13.07;;;;;;;16.20;42.08;102271.38;5074010;28;20025;-75
2021/03/08 05:37:43;;;;;;;15.82;12.90;;;;;;;16.17;42.03;102269.22;5073796;28;20527;-75
2021/03/08 05:40:20;;;;;;;17.95;13.82;;;;;;;16.10;42.31;102264.19;5072395;28;20028;-76
2021/03/08 05:42:52;;;;;;;18.15;12.40;;;;;;;16.18;41.76;102265.38;5073802;28;20036;-75
2021/03/08 05:45:30;;;;;;;19.42;13.95;;;;;;;16.25;41.83;102266.56;5074080;28;20040;-75
2021/03/08 05:48:15;;;;;;;21.00;13.73;;;;;;;15.97;42.62;102257.59;5073697;28;20035;-74
2021/03/08 05:51:05;;;;;;;17.15;13.20;;;;;;;16.21;41.97;102260.03;5073684;28;20028;-74
2021/03/08 05:53:56;;;;;;;19.60;13.25;;;;;;;16.23;42.14;102260.50;5071567;28;20029;-74
2021/03/08 05:56:31;;;;;;;19.38;15.00;;;;;;;16.43;41.59;102255.63;5044533;28;20037;-75
2021/03/08 05:59:06;;;;;;;22.20;14.55;;;;;;;16.23;42.31;102266.03;5073374;28;20395;-75
2021/03/08 06:01:43;;;;;;;24.60;14.63;;;;;;;16.46;41.51;102258.53;5073410;28;20054;-74
2021/03/08 06:04:44;;;;;;;17.10;14.07;;;;;;;16.16;42.48;102262.09;5073453;28;20383;-74
2021/03/08 06:07:41;;;;;;;21.27;14.55;;;;;;;16.33;42.02;102262.22;5073348;28;20025;-74
2021/03/08 06:10:10;;;;;;;20.05;13.27;;;;;;;16.50;41.66;102255.97;5073219;28;20032;-74
2021/03/08 06:12:37;;;;;;;20.83;14.48;;;;;;;16.07;42.71;102260.09;5073155;28;20047;-75
2021/03/08 06:15:15;;;;;;;19.88;13.57;;;;;;;15.97;43.21;102252.06;5073174;28;20107;-75
2021/03/08 06:17:41;;;;;;;20.00;14.57;;;;;;;16.00;43.24;102248.69;5073106;28;20060;-75
2021/03/08 06:20:08;;;;;;;18.27;13.20;;;;;;;15.97;43.31;102252.06;5073236;28;20099;-76
2021/03/08 06:22:34;;;;;;;22.73;15.80;;;;;;;16.01;43.21;102252.25;5073210;28;20090;-75
2021/03/08 06:25:01;;;;;;;21.00;13.88;;;;;;;16.12;42.84;102244.56;5073329;28;20420;-75
2021/03/08 06:27:28;;;;;;;21.40;15.43;;;;;;;16.15;42.88;102246.66;5072966;28;20509;-75
2021/03/08 06:29:54;;;;;;;27.27;16.15;;;;;;;16.23;42.64;102245.91;5073200;28;20364;-76
2021/03/08 06:32:20;;;;;;;19.60;14.27;;;;;;;16.19;42.87;102244.94;5072892;28;20028;-75
2021/03/08 06:34:46;;;;;;;21.70;14.05;;;;;;;16.23;42.86;102245.91;5072756;28;20040;-75
2021/03/08 06:37:13;;;;;;;22.30;15.48;;;;;;;16.20;42.77;102244.59;5072949;28;20064;-75
2021/03/08 06:39:41;;;;;;;20.92;14.88;;;;;;;16.22;42.41;102258.06;5072769;28;20510;-75
2021/03/08 06:42:08;;;;;;;23.27;16.30;;;;;;;16.14;42.92;102256.88;5072772;28;20051;-75
2021/03/08 06:44:34;;;;;;;19.92;15.00;;;;;;;16.25;42.51;102260.22;5072619;28;20081;-75
2021/03/08 06:47:00;;;;;;;22.13;15.00;;;;;;;16.23;42.76;102266.03;5072868;28;20390;-76
2021/03/08 06:49:26;;;;;;;19.35;14.93;;;;;;;16.24;42.70;102261.31;5072370;28;20043;-76
2021/03/08 06:52:06;;;;;;;23.15;15.80;;;;;;;16.13;43.26;102263.53;5072539;28;20024;-75
2021/03/08 06:54:34;;;;;;;20.95;12.75;;;;;;;16.14;42.91;102259.66;5072490;28;20033;-76
2021/03/08 06:56:59;;;;;;;22.52;13.80;;;;;;;16.24;42.72;102267.66;5068455;28;20059;-76
2021/03/08 06:59:25;;;;;;;19.17;14.55;;;;;;;16.16;43.00;102262.09;5069513;28;20498;-76
2021/03/08 07:01:52;;;;;;;17.80;12.57;;;;;;;16.30;42.58;102262.84;5070444;28;20039;-75
2021/03/08 07:04:19;;;;;;;21.15;11.98;;;;;;;16.56;42.12;102263.00;5071994;28;20390;-76
2021/03/08 07:07:05;;;;;;;16.20;12.00;;;;;;;16.63;41.70;102255.91;5072545;28;20036;-76
2021/03/08 07:09:32;;;;;;;18.10;12.25;;;;;;;16.71;41.54;102267.31;5072327;28;20033;-75
2021/03/08 07:12:12;;;;;;;19.55;12.38;;;;;;;16.62;41.66;102265.31;5072301;28;20025;-76
2021/03/08 07:14:38;;;;;;;17.75;11.90;;;;;;;16.67;41.26;102269.88;5072542;28;20488;-75
2021/03/08 07:17:33;;;;;;;16.60;11.90;;;;;;;16.67;41.60;102264.34;5069117;28;20484;-76
2021/03/08 07:20:05;;;;;;;16.77;12.20;;;;;;;16.75;41.18;102263.59;5071827;28;20029;-74
2021/03/08 07:22:44;;;;;;;17.20;11.55;;;;;;;16.83;41.02;102259.25;5072565;28;20102;-75
2021/03/08 07:25:20;;;;;;;15.20;11.55;;;;;;;16.98;40.69;102261.56;5071936;28;20039;-75
2021/03/08 07:27:54;;;;;;;16.65;11.68;;;;;;;16.78;40.91;102257.47;5064971;28;20039;-76
2021/03/08 07:30:22;;;;;;;17.55;12.70;;;;;;;16.99;40.48;102257.69;5068881;28;20032;-76
2021/03/08 07:33:03;;;;;;;12.80;10.98;;;;;;;16.84;41.00;102256.16;5070709;28;20024;-76
2021/03/08 07:35:35;;;;;;;12.30;10.70;;;;;;;16.70;41.26;102258.25;5071651;28;20016;-75
2021/03/08 07:38:00;;;;;;;14.48;11.27;;;;;;;16.79;41.09;102252.75;5071785;28;20032;-75
2021/03/08 07:40:27;;;;;;;15.38;11.52;;;;;;;16.79;40.79;102248.03;5056120;28;20431;-75
2021/03/08 07:42:53;;;;;;;20.20;11.48;;;;;;;16.84;40.72;102245.13;5056152;28;20415;-75
2021/03/08 07:45:20;;;;;;;16.23;11.30;;;;;;;16.91;40.65;102250.19;5055910;28;20026;-76
2021/03/08 07:47:46;;;;;;;15.48;11.45;;;;;;;16.83;40.78;102253.72;5071687;28;20025;-75
2021/03/08 07:50:28;;;;;;;14.57;11.55;;;;;;;16.86;41.00;102250.34;5070286;28;20024;-76
2021/03/08 07:52:58;;;;;;;18.38;11.82;;;;;;;16.89;40.86;102244.19;5055237;28;20500;-77
2021/03/08 07:55:36;;;;;;;14.60;12.60;;;;;;;16.92;40.65;102246.28;5055639;28;20779;-75
2021/03/08 07:58:03;;;;;;;17.05;12.25;;;;;;;16.92;40.73;102246.28;5054016;28;20052;-81
2021/03/08 08:00:32;;;;;;;14.70;11.05;;;;;;;16.81;41.10;102244.97;5053769;28;20041;-76
2021/03/08 08:02:58;;;;;;;14.73;12.45;;;;;;;16.89;41.08;102246.94;5052775;28;20153;-76
2021/03/08 08:05:24;;;;;;;16.83;11.80;;;;;;;16.77;41.15;102244.75;5056457;28;20111;-79
2021/03/08 08:07:52;;;;;;;18.02;10.80;;;;;;;16.78;41.30;102245.59;5070902;28;20174;-76
2021/03/08 08:10:18;;;;;;;17.25;11.60;;;;;;;16.79;41.53;102236.19;5064441;28;20070;-76
2021/03/08 08:12:48;;;;;;;16.95;12.32;;;;;;;16.74;41.42;102244.59;5070660;28;20033;-75
2021/03/08 08:15:16;;;;;;;13.68;10.50;;;;;;;16.87;41.14;102246.44;5067863;28;20541;-77
2021/03/08 08:17:44;;;;;;;18.73;11.77;;;;;;;16.95;41.33;102242.09;5075275;28;20035;-76
2021/03/08 08:20:12;;;;;;;20.33;10.82;;;;;;;17.07;40.79;102236.75;5071989;28;20056;-76
2021/03/08 08:22:44;;;;;;;18.27;10.82;;;;;;;16.98;41.23;102239.50;5073608;28;20457;-76
2021/03/08 08:25:12;;;;;;;21.60;12.40;;;;;;;17.11;40.76;102235.78;5075015;28;20045;-76
2021/03/08 08:27:38;;;;;;;14.95;11.18;;;;;;;17.09;40.95;102243.59;5062328;28;20115;-77
2021/03/08 08:30:04;;;;;;;17.70;12.23;;;;;;;17.17;40.79;102233.72;5058498;28;20807;-78
2021/03/08 08:32:52;;;;;;;17.52;11.05;;;;;;;17.00;41.11;102239.97;5056618;28;20032;-76
2021/03/08 08:35:22;;;;;;;18.70;11.02;;;;;;;17.00;41.21;102242.75;5058886;28;20101;-76
2021/03/08 08:38:06;;;;;;;14.93;11.85;;;;;;;17.21;40.71;102242.97;5058143;28;20521;-75
2021/03/08 08:40:32;;;;;;;20.55;11.23;;;;;;;17.06;41.11;102241.47;5058177;28;20115;-75
2021/03/08 08:43:16;;;;;;;14.20;10.90;;;;;;;17.20;40.62;102242.16;5056731;28;20374;-75
2021/03/08 08:45:50;;;;;;;18.45;11.43;;;;;;;17.31;40.58;102248.19;5054396;28;20028;-76
2021/03/08 08:48:17;;;;;;;17.50;10.85;;;;;;;17.22;40.83;102246.53;5057642;28;20044;-76
2021/03/08 08:50:54;;;;;;;14.32;10.68;;;;;;;17.45;40.54;102253.56;5058103;28;20029;-76
2021/03/08 08:53:35;;;;;;;16.52;11.63;;;;;;;17.42;40.50;102245.94;5058355;28;20123;-76
2021/03/08 08:56:02;;;;;;;15.93;10.77;;;;;;;17.63;40.17;102244.16;5057212;28;20254;-76
2021/03/08 08:58:29;;;;;;;17.65;11.45;;;;;;;17.50;40.36;102236.03;5056571;28;20406;-76
2021/03/08 09:01:10;;;;;;;17.55;11.50;;;;;;;17.48;40.37;102233.59;5057408;28;20021;-76
2021/03/08 09:03:56;;;;;;;16.90;11.25;;;;;;;17.60;40.28;102227.41;5065832;28;20176;-78
2021/03/08 09:06:43;;;;;;;16.42;11.98;;;;;;;17.66;40.16;102228.88;5073842;28;20028;-78
2021/03/08 09:09:16;;;;;;;12.45;10.40;;;;;;;17.71;40.09;102232.34;5074401;28;20402;-83
2021/03/08 09:11:51;;;;;;;17.52;12.63;;;;;;;17.73;40.25;102224.53;5071250;28;20031;-75
2021/03/08 09:14:41;;;;;;;19.58;13.32;;;;;;;17.86;40.08;102225.50;5073801;28;20063;-74
2021/03/08 09:17:31;;;;;;;21.27;14.57;;;;;;;17.81;40.16;102225.66;5072398;28;20051;-77
2021/03/08 09:19:57;;;;;;;31.55;28.65;;;;;;;17.96;39.95;102216.03;5066875;28;20036;-75
2021/03/08 09:22:25;;;;;;;28.38;25.77;;;;;;;17.96;40.09;102224.34;5072752;28;20032;-74
2021/03/08 09:25:10;;;;;;;19.80;16.52;;;;;;;17.96;40.09;102219.63;5070973;28;20025;-78
2021/03/08 09:28:03;;;;;;;15.90;13.88;;;;;;;17.85;40.43;102223.88;5069452;28;20032;-74
2021/03/08 09:30:36;;;;;;;27.20;24.35;;;;;;;18.08;39.83;102221.72;5066285;28;20040;-75
2021/03/08 09:33:10;;;;;;;30.77;27.50;;;;;;;18.40;39.45;102214.00;5065764;28;20074;-77
2021/03/08 09:35:47;;;;;;;25.08;21.33;;;;;;;18.49;39.25;102210.06;5069460;28;20033;-77
2021/03/08 09:38:24;;;;;;;27.08;23.50;;;;;;;18.39;39.57;102204.88;5070635;28;20024;-76
2021/03/08 09:40:54;;;;;;;15.18;13.38;;;;;;;18.49;39.29;102204.53;5071789;28;20024;-76
2021/03/08 09:43:20;;;;;;;;;;;;;;;18.30;39.67;102204.91;5072108;28;20482;-76
2021/03/08 09:45:57;;;;;;;22.27;16.60;;;;;;;18.43;39.58;102207.78;5071281;28;19908;-77
2021/03/08 09:48:23;;;;;;;14.65;12.55;;;;;;;18.49;39.25;102207.28;5053775;28;20111;-79
2021/03/08 09:50:49;;;;;;;17.33;11.63;;;;;;;18.57;39.12;102202.84;5053945;28;20017;-82
2021/03/08 09:53:15;;;;;;;16.92;11.88;;;;;;;18.64;39.05;102205.94;5067063;28;20033;-79
2021/03/08 09:55:41;;;;;;;20.27;11.73;;;;;;;18.57;39.30;102206.44;5073251;28;20034;-77
2021/03/08 09:58:18;;;;;;;19.85;12.52;;;;;;;18.58;39.44;102201.72;5073257;28;20072;-76
2021/03/08 10:00:47;;;;;;;17.75;12.05;;;;;;;18.58;39.50;102207.25;5072120;28;20036;-79
2021/03/08 10:03:13;;;;;;;16.10;11.70;;;;;;;18.71;39.31;102200.72;5071334;28;20033;-80
2021/03/08 10:05:40;;;;;;;16.55;12.02;;;;;;;18.72;39.52;102202.34;5072303;28;20040;-79
2021/03/08 10:08:06;;;;;;;16.23;12.20;;;;;;;18.83;39.57;102200.03;5073058;28;20032;-76
2021/03/08 10:10:37;;;;;;;17.05;11.18;;;;;;;18.86;39.69;102196.56;5073120;28;20465;-80
2021/03/08 10:13:03;;;;;;;19.70;12.48;;;;;;;18.86;39.51;102185.50;5073136;28;20109;-78
2021/03/08 10:15:40;;;;;;;18.20;10.90;;;;;;;18.79;39.54;102196.28;5072103;28;20039;-77
2021/03/08 10:18:06;;;;;;;21.05;12.27;;;;;;;18.93;39.57;102190.50;5070420;28;20037;-79
2021/03/08 10:20:32;;;;;;;16.83;11.48;;;;;;;19.11;39.22;102197.56;5072741;28;20039;-76
2021/03/08 10:22:59;;;;;;;16.83;11.75;;;;;;;19.19;39.11;102182.03;5069594;28;20041;-78
2021/03/08 10:25:32;;;;;;;14.70;9.82;;;;;;;19.21;39.23;102185.28;5072830;28;20107;-79
2021/03/08 10:28:04;;;;;;;15.73;10.95;;;;;;;19.23;39.04;102175.47;5072911;28;20024;-77
2021/03/08 10:30:33;;;;;;;15.63;11.18;;;;;;;19.39;39.20;102186.78;5073024;28;20498;-78
2021/03/08 10:33:02;;;;;;;15.00;11.02;;;;;;;19.59;38.80;102185.19;5069957;28;20025;-77
2021/03/08 10:35:34;;;;;;;15.15;11.23;;;;;;;19.70;38.75;102191.09;5072057;28;20028;-79
2021/03/08 10:38:01;;;;;;;18.40;11.23;;;;;;;19.70;39.02;102180.03;5072544;28;20025;-80
2021/03/08 10:40:27;;;;;;;20.10;9.65;;;;;;;19.94;38.68;102180.91;5071829;28;20046;-80
2021/03/08 10:42:53;;;;;;;17.52;11.05;;;;;;;20.05;38.28;102195.19;5070577;28;20036;-79
2021/03/08 10:45:20;;;;;;;14.82;10.70;;;;;;;20.40;37.89;102181.72;5070761;28;20048;-80
2021/03/08 10:48:04;;;;;;;11.93;10.02;;;;;;;20.60;37.52;102180.03;5070383;28;20029;-82
2021/03/08 10:50:44;;;;;;;14.52;9.07;;;;;;;20.70;37.25;102185.09;5072249;28;20024;-79
2021/03/08 10:53:11;;;;;;;;;;;;;;;21.09;36.96;102179.22;5073102;28;20070;-79
2021/03/08 10:55:38;;;;;;;29.13;20.10;;;;;;;20.81;36.98;102185.47;5072133;28;19912;-78
2021/03/08 10:58:03;;;;;;;27.92;13.93;;;;;;;20.75;36.90;102176.56;5071442;28;20076;-79
2021/03/08 11:00:34;;;;;;;15.52;8.27;;;;;;;20.61;36.39;102178.88;5071311;28;20640;-78
2021/03/08 11:03:00;;;;;;;19.45;8.15;;;;;;;20.64;36.21;102174.59;5070523;28;20414;-79
2021/03/08 11:05:28;;;;;;;49.38;12.90;;;;;;;20.23;36.52;102184.69;5071965;28;20021;-78
2021/03/08 11:07:54;;;;;;;11.10;8.02;;;;;;;20.23;36.25;102190.25;5071553;28;20077;-78
2021/03/08 11:10:37;;;;;;;10.23;7.07;;;;;;;20.24;35.82;102183.53;5072277;28;20522;-79
2021/03/08 11:13:05;;;;;;;22.13;16.50;;;;;;;20.08;35.86;102177.84;5072267;28;20036;-80
2021/03/08 11:15:30;;;;;;;11.70;6.72;;;;;;;20.08;35.64;102179.81;5071300;28;20039;-79
2021/03/08 11:17:56;;;;;;;88.20;20.70;;;;;;;20.17;35.75;102178.53;5072006;28;20021;-81
2021/03/08 11:20:30;;;;;;;23.02;11.45;;;;;;;20.24;35.66;102178.78;5072307;28;20028;-78
2021/03/08 11:22:56;;;;;;;52.97;11.55;;;;;;;20.45;35.36;102183.50;5071294;28;20107;-80